sensor_id;sensor_type;location;lat;lon;timestamp;temperature;humidity
41953;DHT22;47381;28.206;112.926;2022-08-20T00:00:56;34.20;51.90
41953;DHT22;47381;28.206;112.926;2022-08-20T00:03:35;34.20;52.20
41953;DHT22;47381;28.206;112.926;2022-08-20T00:06:15;34.20;52.30
41953;DHT22;47381;28.206;112.926;2022-08-20T00:08:48;34.20;52.20
41953;DHT22;47381;28.206;112.926;2022-08-20T00:11:24;34.20;52.50
41953;DHT22;47381;28.206;112.926;2022-08-20T00:13:59;34.20;52.40
41953;DHT22;47381;28.206;112.926;2022-08-20T00:16:49;34.20;52.50
41953;DHT22;47381;28.206;112.926;2022-08-20T00:19:19;34.20;52.40
41953;DHT22;47381;28.206;112.926;2022-08-20T00:21:50;34.20;52.40
41953;DHT22;47381;28.206;112.926;2022-08-20T00:24:17;34.20;52.40
41953;DHT22;47381;28.206;112.926;2022-08-20T00:26:53;34.20;52.50
41953;DHT22;47381;28.206;112.926;2022-08-20T00:29:24;34.20;52.50
41953;DHT22;47381;28.206;112.926;2022-08-20T00:31:52;34.20;52.40
41953;DHT22;47381;28.206;112.926;2022-08-20T00:34:21;34.20;52.40
41953;DHT22;47381;28.206;112.926;2022-08-20T00:36:52;34.20;52.40
41953;DHT22;47381;28.206;112.926;2022-08-20T00:39:31;34.20;52.40
41953;DHT22;47381;28.206;112.926;2022-08-20T00:41:59;34.20;52.60
41953;DHT22;47381;28.206;112.926;2022-08-20T00:44:34;34.20;52.60
41953;DHT22;47381;28.206;112.926;2022-08-20T00:47:11;34.20;52.70
41953;DHT22;47381;28.206;112.926;2022-08-20T00:49:38;34.30;52.50
41953;DHT22;47381;28.206;112.926;2022-08-20T00:52:11;34.20;52.50
41953;DHT22;47381;28.206;112.926;2022-08-20T00:54:54;34.20;52.60
41953;DHT22;47381;28.206;112.926;2022-08-20T00:58:05;34.30;52.40
41953;DHT22;47381;28.206;112.926;2022-08-20T01:00:44;34.30;52.10
41953;DHT22;47381;28.206;112.926;2022-08-20T01:03:15;34.20;52.20
41953;DHT22;47381;28.206;112.926;2022-08-20T01:05:52;34.30;52.00
41953;DHT22;47381;28.206;112.926;2022-08-20T01:08:23;34.30;52.00
41953;DHT22;47381;28.206;112.926;2022-08-20T01:11:02;34.30;52.10
41953;DHT22;47381;28.206;112.926;2022-08-20T01:13:36;34.30;52.10
41953;DHT22;47381;28.206;112.926;2022-08-20T01:16:20;34.30;52.20
41953;DHT22;47381;28.206;112.926;2022-08-20T01:18:57;34.40;51.70
41953;DHT22;47381;28.206;112.926;2022-08-20T01:21:56;34.40;51.20
41953;DHT22;47381;28.206;112.926;2022-08-20T01:24:57;34.40;51.10
41953;DHT22;47381;28.206;112.926;2022-08-20T01:27:32;34.40;50.90
41953;DHT22;47381;28.206;112.926;2022-08-20T01:30:20;34.40;50.90
41953;DHT22;47381;28.206;112.926;2022-08-20T01:32:49;34.40;50.70
41953;DHT22;47381;28.206;112.926;2022-08-20T01:35:24;34.50;50.80
41953;DHT22;47381;28.206;112.926;2022-08-20T01:37:56;34.50;50.70
41953;DHT22;47381;28.206;112.926;2022-08-20T01:43:29;34.40;50.50
41953;DHT22;47381;28.206;112.926;2022-08-20T01:45:57;34.50;50.30
41953;DHT22;47381;28.206;112.926;2022-08-20T01:48:25;34.50;50.30
41953;DHT22;47381;28.206;112.926;2022-08-20T01:51:16;34.60;50.10
41953;DHT22;47381;28.206;112.926;2022-08-20T01:54:02;34.50;50.10
41953;DHT22;47381;28.206;112.926;2022-08-20T01:56:34;34.60;50.20
41953;DHT22;47381;28.206;112.926;2022-08-20T01:59:04;34.60;50.10
41953;DHT22;47381;28.206;112.926;2022-08-20T02:01:40;34.60;49.60
41953;DHT22;47381;28.206;112.926;2022-08-20T02:04:14;34.60;49.30
41953;DHT22;47381;28.206;112.926;2022-08-20T02:06:56;34.70;49.00
41953;DHT22;47381;28.206;112.926;2022-08-20T02:09:45;34.60;48.70
41953;DHT22;47381;28.206;112.926;2022-08-20T02:12:21;34.70;48.70
41953;DHT22;47381;28.206;112.926;2022-08-20T02:14:50;34.70;48.60
41953;DHT22;47381;28.206;112.926;2022-08-20T02:17:28;34.70;48.40
41953;DHT22;47381;28.206;112.926;2022-08-20T02:20:00;34.70;48.20
41953;DHT22;47381;28.206;112.926;2022-08-20T02:22:36;34.70;48.40
41953;DHT22;47381;28.206;112.926;2022-08-20T02:25:12;34.70;48.40
41953;DHT22;47381;28.206;112.926;2022-08-20T02:27:44;34.70;48.30
41953;DHT22;47381;28.206;112.926;2022-08-20T02:30:35;34.70;48.10
41953;DHT22;47381;28.206;112.926;2022-08-20T02:33:08;34.80;47.90
41953;DHT22;47381;28.206;112.926;2022-08-20T02:35:42;34.80;47.90
41953;DHT22;47381;28.206;112.926;2022-08-20T02:38:21;34.80;47.90
41953;DHT22;47381;28.206;112.926;2022-08-20T02:40:51;34.90;48.00
41953;DHT22;47381;28.206;112.926;2022-08-20T02:43:40;34.90;48.00
41953;DHT22;47381;28.206;112.926;2022-08-20T02:46:14;34.90;48.10
41953;DHT22;47381;28.206;112.926;2022-08-20T02:48:41;34.90;48.00
41953;DHT22;47381;28.206;112.926;2022-08-20T02:51:12;34.90;48.20
41953;DHT22;47381;28.206;112.926;2022-08-20T02:53:49;35.00;48.00
41953;DHT22;47381;28.206;112.926;2022-08-20T02:56:23;35.00;47.70
41953;DHT22;47381;28.206;112.926;2022-08-20T02:58:51;35.00;47.40
41953;DHT22;47381;28.206;112.926;2022-08-20T03:01:22;35.00;47.50
41953;DHT22;47381;28.206;112.926;2022-08-20T03:03:57;35.10;47.60
41953;DHT22;47381;28.206;112.926;2022-08-20T03:06:48;35.10;47.60
41953;DHT22;47381;28.206;112.926;2022-08-20T03:09:37;35.10;47.60
41953;DHT22;47381;28.206;112.926;2022-08-20T03:12:05;35.10;47.60
41953;DHT22;47381;28.206;112.926;2022-08-20T03:14:36;35.20;47.70
41953;DHT22;47381;28.206;112.926;2022-08-20T03:17:31;35.20;47.50
41953;DHT22;47381;28.206;112.926;2022-08-20T03:20:00;35.20;47.70
41953;DHT22;47381;28.206;112.926;2022-08-20T03:22:28;35.20;47.60
41953;DHT22;47381;28.206;112.926;2022-08-20T03:25:03;35.20;47.40
41953;DHT22;47381;28.206;112.926;2022-08-20T03:27:35;35.20;47.30
41953;DHT22;47381;28.206;112.926;2022-08-20T03:30:27;35.30;47.30
41953;DHT22;47381;28.206;112.926;2022-08-20T03:33:16;35.30;46.90
41953;DHT22;47381;28.206;112.926;2022-08-20T03:36:26;35.30;46.80
41953;DHT22;47381;28.206;112.926;2022-08-20T03:39:38;35.30;46.60
41953;DHT22;47381;28.206;112.926;2022-08-20T03:42:09;35.40;46.70
41953;DHT22;47381;28.206;112.926;2022-08-20T03:44:46;35.40;46.80
41953;DHT22;47381;28.206;112.926;2022-08-20T03:47:20;35.40;46.90
41953;DHT22;47381;28.206;112.926;2022-08-20T03:50:20;35.40;46.50
41953;DHT22;47381;28.206;112.926;2022-08-20T03:52:50;35.50;46.80
41953;DHT22;47381;28.206;112.926;2022-08-20T03:55:22;35.50;46.80
41953;DHT22;47381;28.206;112.926;2022-08-20T03:57:55;35.60;46.90
41953;DHT22;47381;28.206;112.926;2022-08-20T04:00:48;35.70;46.80
41953;DHT22;47381;28.206;112.926;2022-08-20T04:03:22;35.70;46.70
41953;DHT22;47381;28.206;112.926;2022-08-20T04:05:52;35.70;46.80
41953;DHT22;47381;28.206;112.926;2022-08-20T04:08:40;35.70;46.60
41953;DHT22;47381;28.206;112.926;2022-08-20T04:11:12;35.80;46.80
41953;DHT22;47381;28.206;112.926;2022-08-20T04:13:43;35.80;46.20
41953;DHT22;47381;28.206;112.926;2022-08-20T04:16:30;35.80;46.30
41953;DHT22;47381;28.206;112.926;2022-08-20T04:19:03;35.80;46.40
41953;DHT22;47381;28.206;112.926;2022-08-20T04:21:38;35.80;46.50
41953;DHT22;47381;28.206;112.926;2022-08-20T04:24:06;35.80;46.70
41953;DHT22;47381;28.206;112.926;2022-08-20T04:26:38;35.90;46.60
41953;DHT22;47381;28.206;112.926;2022-08-20T04:29:07;36.00;46.70
41953;DHT22;47381;28.206;112.926;2022-08-20T04:31:36;36.00;46.30
41953;DHT22;47381;28.206;112.926;2022-08-20T04:34:21;36.00;46.10
41953;DHT22;47381;28.206;112.926;2022-08-20T04:37:08;36.00;46.20
41953;DHT22;47381;28.206;112.926;2022-08-20T04:39:42;36.10;45.60
41953;DHT22;47381;28.206;112.926;2022-08-20T04:42:30;36.10;45.60
41953;DHT22;47381;28.206;112.926;2022-08-20T04:45:05;36.10;45.80
41953;DHT22;47381;28.206;112.926;2022-08-20T04:47:44;36.20;45.90
41953;DHT22;47381;28.206;112.926;2022-08-20T04:50:13;36.20;45.80
41953;DHT22;47381;28.206;112.926;2022-08-20T04:52:46;36.10;45.30
41953;DHT22;47381;28.206;112.926;2022-08-20T04:55:40;36.20;45.40
41953;DHT22;47381;28.206;112.926;2022-08-20T04:58:31;36.20;45.40
41953;DHT22;47381;28.206;112.926;2022-08-20T05:01:04;36.20;45.60
41953;DHT22;47381;28.206;112.926;2022-08-20T05:03:52;36.20;44.20
41953;DHT22;47381;28.206;112.926;2022-08-20T05:06:29;36.10;44.00
41953;DHT22;47381;28.206;112.926;2022-08-20T05:09:21;36.20;45.10
41953;DHT22;47381;28.206;112.926;2022-08-20T05:11:59;36.30;44.80
41953;DHT22;47381;28.206;112.926;2022-08-20T05:14:49;36.40;44.40
41953;DHT22;47381;28.206;112.926;2022-08-20T05:17:34;36.30;44.00
41953;DHT22;47381;28.206;112.926;2022-08-20T05:20:05;36.30;44.00
41953;DHT22;47381;28.206;112.926;2022-08-20T05:22:33;36.30;44.50
41953;DHT22;47381;28.206;112.926;2022-08-20T05:25:04;36.30;44.80
41953;DHT22;47381;28.206;112.926;2022-08-20T05:27:39;36.20;45.00
41953;DHT22;47381;28.206;112.926;2022-08-20T05:30:39;36.20;44.90
41953;DHT22;47381;28.206;112.926;2022-08-20T05:33:21;36.40;44.60
41953;DHT22;47381;28.206;112.926;2022-08-20T05:35:55;36.40;44.60
41953;DHT22;47381;28.206;112.926;2022-08-20T05:38:32;36.40;43.80
41953;DHT22;47381;28.206;112.926;2022-08-20T05:41:09;36.40;44.00
41953;DHT22;47381;28.206;112.926;2022-08-20T05:43:43;36.40;44.30
41953;DHT22;47381;28.206;112.926;2022-08-20T05:46:14;36.40;44.60
41953;DHT22;47381;28.206;112.926;2022-08-20T05:48:42;36.50;44.50
41953;DHT22;47381;28.206;112.926;2022-08-20T05:51:18;36.50;44.80
41953;DHT22;47381;28.206;112.926;2022-08-20T05:53:50;36.60;44.30
41953;DHT22;47381;28.206;112.926;2022-08-20T05:56:30;36.50;44.00
41953;DHT22;47381;28.206;112.926;2022-08-20T05:59:10;36.50;44.20
41953;DHT22;47381;28.206;112.926;2022-08-20T06:01:42;36.40;43.20
41953;DHT22;47381;28.206;112.926;2022-08-20T06:04:39;36.40;43.90
41953;DHT22;47381;28.206;112.926;2022-08-20T06:07:21;36.50;43.80
41953;DHT22;47381;28.206;112.926;2022-08-20T06:09:56;36.60;42.70
41953;DHT22;47381;28.206;112.926;2022-08-20T06:12:39;36.40;42.90
41953;DHT22;47381;28.206;112.926;2022-08-20T06:15:13;36.50;42.80
41953;DHT22;47381;28.206;112.926;2022-08-20T06:17:42;36.50;42.70
41953;DHT22;47381;28.206;112.926;2022-08-20T06:20:10;36.70;42.40
41953;DHT22;47381;28.206;112.926;2022-08-20T06:22:50;36.60;42.00
41953;DHT22;47381;28.206;112.926;2022-08-20T06:25:35;36.70;41.90
41953;DHT22;47381;28.206;112.926;2022-08-20T06:28:17;36.70;41.70
41953;DHT22;47381;28.206;112.926;2022-08-20T06:31:12;36.70;41.90
41953;DHT22;47381;28.206;112.926;2022-08-20T06:33:43;36.70;42.00
41953;DHT22;47381;28.206;112.926;2022-08-20T06:36:12;36.70;42.40
41953;DHT22;47381;28.206;112.926;2022-08-20T06:38:41;36.70;42.50
41953;DHT22;47381;28.206;112.926;2022-08-20T06:41:25;36.70;41.90
41953;DHT22;47381;28.206;112.926;2022-08-20T06:44:14;36.70;42.00
41953;DHT22;47381;28.206;112.926;2022-08-20T06:46:47;36.70;41.90
41953;DHT22;47381;28.206;112.926;2022-08-20T06:49:16;36.70;42.20
41953;DHT22;47381;28.206;112.926;2022-08-20T06:52:04;36.70;42.40
41953;DHT22;47381;28.206;112.926;2022-08-20T06:54:32;36.70;42.20
41953;DHT22;47381;28.206;112.926;2022-08-20T06:57:04;36.80;42.10
41953;DHT22;47381;28.206;112.926;2022-08-20T06:59:34;36.80;41.60
41953;DHT22;47381;28.206;112.926;2022-08-20T07:02:03;36.70;41.80
41953;DHT22;47381;28.206;112.926;2022-08-20T07:04:31;36.90;41.70
41953;DHT22;47381;28.206;112.926;2022-08-20T07:06:58;36.90;42.20
41953;DHT22;47381;28.206;112.926;2022-08-20T07:09:26;36.90;42.20
41953;DHT22;47381;28.206;112.926;2022-08-20T07:11:53;36.90;42.40
41953;DHT22;47381;28.206;112.926;2022-08-20T07:14:21;36.90;42.50
41953;DHT22;47381;28.206;112.926;2022-08-20T07:16:48;36.90;42.80
41953;DHT22;47381;28.206;112.926;2022-08-20T07:19:23;36.90;42.30
41953;DHT22;47381;28.206;112.926;2022-08-20T07:21:51;36.90;42.40
41953;DHT22;47381;28.206;112.926;2022-08-20T07:24:19;37.10;41.80
41953;DHT22;47381;28.206;112.926;2022-08-20T07:26:46;36.90;42.30
41953;DHT22;47381;28.206;112.926;2022-08-20T07:29:14;36.90;42.40
41953;DHT22;47381;28.206;112.926;2022-08-20T07:31:41;36.90;41.80
41953;DHT22;47381;28.206;112.926;2022-08-20T07:34:26;36.90;42.00
41953;DHT22;47381;28.206;112.926;2022-08-20T07:36:53;36.90;42.70
41953;DHT22;47381;28.206;112.926;2022-08-20T07:39:24;36.90;43.20
41953;DHT22;47381;28.206;112.926;2022-08-20T07:42:03;37.00;41.90
41953;DHT22;47381;28.206;112.926;2022-08-20T07:44:32;37.00;42.70
41953;DHT22;47381;28.206;112.926;2022-08-20T07:47:04;36.90;42.60
41953;DHT22;47381;28.206;112.926;2022-08-20T07:49:35;36.80;43.00
41953;DHT22;47381;28.206;112.926;2022-08-20T07:52:04;36.80;43.10
41953;DHT22;47381;28.206;112.926;2022-08-20T07:54:32;36.80;43.10
41953;DHT22;47381;28.206;112.926;2022-08-20T07:57:01;36.80;42.80
41953;DHT22;47381;28.206;112.926;2022-08-20T07:59:29;36.70;42.70
41953;DHT22;47381;28.206;112.926;2022-08-20T08:01:57;36.70;42.40
41953;DHT22;47381;28.206;112.926;2022-08-20T08:04:27;36.70;42.20
41953;DHT22;47381;28.206;112.926;2022-08-20T08:07:14;36.70;42.10
41953;DHT22;47381;28.206;112.926;2022-08-20T08:09:45;36.70;42.10
41953;DHT22;47381;28.206;112.926;2022-08-20T08:12:13;36.70;41.40
41953;DHT22;47381;28.206;112.926;2022-08-20T08:14:43;36.70;42.30
41953;DHT22;47381;28.206;112.926;2022-08-20T08:17:12;36.70;42.20
41953;DHT22;47381;28.206;112.926;2022-08-20T08:19:45;36.70;42.40
41953;DHT22;47381;28.206;112.926;2022-08-20T08:22:16;36.70;41.50
41953;DHT22;47381;28.206;112.926;2022-08-20T08:24:45;36.70;42.60
41953;DHT22;47381;28.206;112.926;2022-08-20T08:27:15;36.60;42.70
41953;DHT22;47381;28.206;112.926;2022-08-20T08:29:45;36.60;42.70
41953;DHT22;47381;28.206;112.926;2022-08-20T08:32:15;36.60;42.50
41953;DHT22;47381;28.206;112.926;2022-08-20T08:34:42;36.60;42.70
41953;DHT22;47381;28.206;112.926;2022-08-20T08:37:18;36.60;42.10
41953;DHT22;47381;28.206;112.926;2022-08-20T08:39:45;36.60;42.30
41953;DHT22;47381;28.206;112.926;2022-08-20T08:42:42;36.60;42.50
41953;DHT22;47381;28.206;112.926;2022-08-20T08:45:13;36.60;42.70
41953;DHT22;47381;28.206;112.926;2022-08-20T08:47:44;36.50;42.40
41953;DHT22;47381;28.206;112.926;2022-08-20T08:50:24;36.50;42.10
41953;DHT22;47381;28.206;112.926;2022-08-20T08:52:56;36.50;42.70
41953;DHT22;47381;28.206;112.926;2022-08-20T08:55:25;36.50;42.60
41953;DHT22;47381;28.206;112.926;2022-08-20T08:57:56;36.50;42.80
41953;DHT22;47381;28.206;112.926;2022-08-20T09:00:26;36.50;42.20
41953;DHT22;47381;28.206;112.926;2022-08-20T09:03:04;36.40;41.90
41953;DHT22;47381;28.206;112.926;2022-08-20T09:05:51;36.40;42.60
41953;DHT22;47381;28.206;112.926;2022-08-20T09:08:24;36.40;42.70
41953;DHT22;47381;28.206;112.926;2022-08-20T09:10:53;36.40;42.80
41953;DHT22;47381;28.206;112.926;2022-08-20T09:13:20;36.40;42.60
41953;DHT22;47381;28.206;112.926;2022-08-20T09:15:49;36.50;42.80
41953;DHT22;47381;28.206;112.926;2022-08-20T09:18:16;36.40;42.10
41953;DHT22;47381;28.206;112.926;2022-08-20T09:20:43;36.40;42.80
41953;DHT22;47381;28.206;112.926;2022-08-20T09:23:10;36.30;42.90
41953;DHT22;47381;28.206;112.926;2022-08-20T09:25:37;36.30;42.70
41953;DHT22;47381;28.206;112.926;2022-08-20T09:28:24;36.30;42.50
41953;DHT22;47381;28.206;112.926;2022-08-20T09:30:57;36.20;42.80
41953;DHT22;47381;28.206;112.926;2022-08-20T09:33:26;36.30;42.80
41953;DHT22;47381;28.206;112.926;2022-08-20T09:36:14;36.30;43.00
41953;DHT22;47381;28.206;112.926;2022-08-20T09:38:41;36.30;42.80
41953;DHT22;47381;28.206;112.926;2022-08-20T09:41:28;36.20;42.50
41953;DHT22;47381;28.206;112.926;2022-08-20T09:43:55;36.30;43.00
41953;DHT22;47381;28.206;112.926;2022-08-20T09:46:23;36.30;42.90
41953;DHT22;47381;28.206;112.926;2022-08-20T09:48:53;36.20;42.50
41953;DHT22;47381;28.206;112.926;2022-08-20T09:51:21;36.20;42.40
41953;DHT22;47381;28.206;112.926;2022-08-20T09:53:51;36.20;42.30
41953;DHT22;47381;28.206;112.926;2022-08-20T09:56:18;36.20;42.90
41953;DHT22;47381;28.206;112.926;2022-08-20T09:58:49;36.20;40.90
41953;DHT22;47381;28.206;112.926;2022-08-20T10:01:19;36.10;42.00
41953;DHT22;47381;28.206;112.926;2022-08-20T10:03:47;36.10;41.10
41953;DHT22;47381;28.206;112.926;2022-08-20T10:06:18;36.10;41.30
41953;DHT22;47381;28.206;112.926;2022-08-20T10:08:47;36.10;41.90
41953;DHT22;47381;28.206;112.926;2022-08-20T10:11:17;36.10;41.70
41953;DHT22;47381;28.206;112.926;2022-08-20T10:13:44;36.10;42.20
41953;DHT22;47381;28.206;112.926;2022-08-20T10:16:13;36.10;42.80
41953;DHT22;47381;28.206;112.926;2022-08-20T10:18:40;36.10;42.50
41953;DHT22;47381;28.206;112.926;2022-08-20T10:21:11;36.10;42.90
41953;DHT22;47381;28.206;112.926;2022-08-20T10:23:40;36.10;42.50
41953;DHT22;47381;28.206;112.926;2022-08-20T10:26:11;36.10;42.50
41953;DHT22;47381;28.206;112.926;2022-08-20T10:28:39;36.00;41.80
41953;DHT22;47381;28.206;112.926;2022-08-20T10:31:07;36.00;42.00
41953;DHT22;47381;28.206;112.926;2022-08-20T10:33:35;36.00;42.30
41953;DHT22;47381;28.206;112.926;2022-08-20T10:36:10;36.10;42.20
41953;DHT22;47381;28.206;112.926;2022-08-20T10:38:38;36.10;42.30
41953;DHT22;47381;28.206;112.926;2022-08-20T10:41:05;36.10;42.30
41953;DHT22;47381;28.206;112.926;2022-08-20T10:43:34;36.20;42.20
41953;DHT22;47381;28.206;112.926;2022-08-20T10:46:01;36.10;42.40
41953;DHT22;47381;28.206;112.926;2022-08-20T10:48:29;36.10;41.90
41953;DHT22;47381;28.206;112.926;2022-08-20T10:50:57;36.00;41.60
41953;DHT22;47381;28.206;112.926;2022-08-20T10:53:44;36.00;41.60
41953;DHT22;47381;28.206;112.926;2022-08-20T10:56:11;36.00;41.60
41953;DHT22;47381;28.206;112.926;2022-08-20T10:58:39;35.90;42.20
41953;DHT22;47381;28.206;112.926;2022-08-20T11:01:06;35.90;43.00
41953;DHT22;47381;28.206;112.926;2022-08-20T11:03:54;35.90;41.40
41953;DHT22;47381;28.206;112.926;2022-08-20T11:06:21;35.90;43.00
41953;DHT22;47381;28.206;112.926;2022-08-20T11:09:08;35.90;42.50
41953;DHT22;47381;28.206;112.926;2022-08-20T11:11:35;35.80;42.40
41953;DHT22;47381;28.206;112.926;2022-08-20T11:14:02;35.80;42.50
41953;DHT22;47381;28.206;112.926;2022-08-20T11:16:31;35.80;42.80
41953;DHT22;47381;28.206;112.926;2022-08-20T11:18:58;35.80;43.20
41953;DHT22;47381;28.206;112.926;2022-08-20T11:21:25;35.70;43.30
41953;DHT22;47381;28.206;112.926;2022-08-20T11:23:52;35.70;43.10
41953;DHT22;47381;28.206;112.926;2022-08-20T11:26:24;35.70;42.70
41953;DHT22;47381;28.206;112.926;2022-08-20T11:28:51;35.70;43.40
41953;DHT22;47381;28.206;112.926;2022-08-20T11:31:38;35.70;44.10
41953;DHT22;47381;28.206;112.926;2022-08-20T11:34:06;35.70;43.90
41953;DHT22;47381;28.206;112.926;2022-08-20T11:36:33;35.70;44.50
41953;DHT22;47381;28.206;112.926;2022-08-20T11:39:01;35.70;43.60
41953;DHT22;47381;28.206;112.926;2022-08-20T11:41:48;35.70;44.70
41953;DHT22;47381;28.206;112.926;2022-08-20T11:44:20;35.70;43.40
41953;DHT22;47381;28.206;112.926;2022-08-20T11:46:48;35.70;43.90
41953;DHT22;47381;28.206;112.926;2022-08-20T11:49:15;35.70;44.70
41953;DHT22;47381;28.206;112.926;2022-08-20T11:51:42;35.60;43.70
41953;DHT22;47381;28.206;112.926;2022-08-20T11:54:09;35.70;43.40
41953;DHT22;47381;28.206;112.926;2022-08-20T11:56:37;35.60;44.10
41953;DHT22;47381;28.206;112.926;2022-08-20T11:59:05;35.60;44.30
41953;DHT22;47381;28.206;112.926;2022-08-20T12:01:33;35.60;44.70
41953;DHT22;47381;28.206;112.926;2022-08-20T12:04:00;35.60;44.60
41953;DHT22;47381;28.206;112.926;2022-08-20T12:06:30;35.60;45.20
41953;DHT22;47381;28.206;112.926;2022-08-20T12:09:00;35.60;43.90
41953;DHT22;47381;28.206;112.926;2022-08-20T12:11:28;35.50;43.90
41953;DHT22;47381;28.206;112.926;2022-08-20T12:13:55;35.50;44.20
41953;DHT22;47381;28.206;112.926;2022-08-20T12:16:22;35.50;43.80
41953;DHT22;47381;28.206;112.926;2022-08-20T12:19:07;35.20;38.90
41953;DHT22;47381;28.206;112.926;2022-08-20T12:21:56;35.30;43.30
41953;DHT22;47381;28.206;112.926;2022-08-20T12:24:33;35.40;45.10
41953;DHT22;47381;28.206;112.926;2022-08-20T12:27:30;35.40;45.90
41953;DHT22;47381;28.206;112.926;2022-08-20T12:30:01;35.40;44.90
41953;DHT22;47381;28.206;112.926;2022-08-20T12:32:38;35.40;45.10
41953;DHT22;47381;28.206;112.926;2022-08-20T12:35:07;35.40;46.60
41953;DHT22;47381;28.206;112.926;2022-08-20T12:37:43;35.40;45.90
41953;DHT22;47381;28.206;112.926;2022-08-20T12:40:42;35.40;46.40
41953;DHT22;47381;28.206;112.926;2022-08-20T12:43:14;35.30;46.70
41953;DHT22;47381;28.206;112.926;2022-08-20T12:45:41;35.30;47.00
41953;DHT22;47381;28.206;112.926;2022-08-20T12:48:22;35.30;46.40
41953;DHT22;47381;28.206;112.926;2022-08-20T12:51:04;35.40;46.50
41953;DHT22;47381;28.206;112.926;2022-08-20T12:53:40;35.40;47.30
41953;DHT22;47381;28.206;112.926;2022-08-20T12:56:16;35.40;46.70
41953;DHT22;47381;28.206;112.926;2022-08-20T12:59:08;35.40;47.40
41953;DHT22;47381;28.206;112.926;2022-08-20T13:01:47;35.30;47.20
41953;DHT22;47381;28.206;112.926;2022-08-20T13:04:20;35.30;47.40
41953;DHT22;47381;28.206;112.926;2022-08-20T13:06:51;35.30;47.20
41953;DHT22;47381;28.206;112.926;2022-08-20T13:09:31;35.40;47.30
41953;DHT22;47381;28.206;112.926;2022-08-20T13:12:08;35.30;47.20
41953;DHT22;47381;28.206;112.926;2022-08-20T13:14:44;35.30;47.80
41953;DHT22;47381;28.206;112.926;2022-08-20T13:17:49;35.30;47.30
41953;DHT22;47381;28.206;112.926;2022-08-20T13:20:43;35.30;47.60
41953;DHT22;47381;28.206;112.926;2022-08-20T13:23:15;35.30;47.90
41953;DHT22;47381;28.206;112.926;2022-08-20T13:25:47;35.30;47.80
41953;DHT22;47381;28.206;112.926;2022-08-20T13:28:21;35.30;47.80
41953;DHT22;47381;28.206;112.926;2022-08-20T13:30:50;35.30;47.70
41953;DHT22;47381;28.206;112.926;2022-08-20T13:33:24;35.30;48.10
41953;DHT22;47381;28.206;112.926;2022-08-20T13:36:00;35.30;47.70
41953;DHT22;47381;28.206;112.926;2022-08-20T13:38:32;35.30;48.20
41953;DHT22;47381;28.206;112.926;2022-08-20T13:41:03;35.30;48.20
41953;DHT22;47381;28.206;112.926;2022-08-20T13:43:35;35.20;47.90
41953;DHT22;47381;28.206;112.926;2022-08-20T13:46:28;35.20;45.40
41953;DHT22;47381;28.206;112.926;2022-08-20T13:49:07;35.00;44.30
41953;DHT22;47381;28.206;112.926;2022-08-20T13:51:56;34.80;45.20
41953;DHT22;47381;28.206;112.926;2022-08-20T13:54:30;34.80;49.60
41953;DHT22;47381;28.206;112.926;2022-08-20T13:57:11;34.80;51.30
41953;DHT22;47381;28.206;112.926;2022-08-20T13:59:53;34.80;52.80
41953;DHT22;47381;28.206;112.926;2022-08-20T14:02:34;34.70;53.70
41953;DHT22;47381;28.206;112.926;2022-08-20T14:05:03;34.70;54.30
41953;DHT22;47381;28.206;112.926;2022-08-20T14:07:35;34.60;54.40
41953;DHT22;47381;28.206;112.926;2022-08-20T14:10:27;34.60;54.80
41953;DHT22;47381;28.206;112.926;2022-08-20T14:13:01;34.50;55.00
41953;DHT22;47381;28.206;112.926;2022-08-20T14:15:36;34.50;55.10
41953;DHT22;47381;28.206;112.926;2022-08-20T14:18:15;34.50;54.50
41953;DHT22;47381;28.206;112.926;2022-08-20T14:20:58;34.50;53.80
41953;DHT22;47381;28.206;112.926;2022-08-20T14:23:31;34.50;53.40
41953;DHT22;47381;28.206;112.926;2022-08-20T14:26:06;34.40;53.40
41953;DHT22;47381;28.206;112.926;2022-08-20T14:29:00;34.40;53.90
41953;DHT22;47381;28.206;112.926;2022-08-20T14:31:31;34.30;53.60
41953;DHT22;47381;28.206;112.926;2022-08-20T14:34:09;34.30;54.10
41953;DHT22;47381;28.206;112.926;2022-08-20T14:36:38;34.30;54.00
41953;DHT22;47381;28.206;112.926;2022-08-20T14:39:05;34.30;53.20
41953;DHT22;47381;28.206;112.926;2022-08-20T14:41:42;34.30;53.70
41953;DHT22;47381;28.206;112.926;2022-08-20T14:44:17;34.20;52.80
41953;DHT22;47381;28.206;112.926;2022-08-20T14:47:13;34.20;52.70
41953;DHT22;47381;28.206;112.926;2022-08-20T14:49:43;34.20;53.00
41953;DHT22;47381;28.206;112.926;2022-08-20T14:52:15;34.20;53.80
41953;DHT22;47381;28.206;112.926;2022-08-20T14:55:12;34.20;54.10
41953;DHT22;47381;28.206;112.926;2022-08-20T14:57:41;34.20;54.50
41953;DHT22;47381;28.206;112.926;2022-08-20T15:00:28;34.20;54.90
41953;DHT22;47381;28.206;112.926;2022-08-20T15:03:21;34.20;55.20
41953;DHT22;47381;28.206;112.926;2022-08-20T15:05:50;34.20;54.40
41953;DHT22;47381;28.206;112.926;2022-08-20T15:08:24;34.20;55.30
41953;DHT22;47381;28.206;112.926;2022-08-20T15:10:52;34.20;54.80
41953;DHT22;47381;28.206;112.926;2022-08-20T15:13:19;34.20;54.80
41953;DHT22;47381;28.206;112.926;2022-08-20T15:15:47;34.20;55.00
41953;DHT22;47381;28.206;112.926;2022-08-20T15:18:34;34.20;54.30
41953;DHT22;47381;28.206;112.926;2022-08-20T15:21:02;34.20;53.80
41953;DHT22;47381;28.206;112.926;2022-08-20T15:23:29;34.20;53.70
41953;DHT22;47381;28.206;112.926;2022-08-20T15:26:00;34.20;53.60
41953;DHT22;47381;28.206;112.926;2022-08-20T15:28:36;34.20;53.70
41953;DHT22;47381;28.206;112.926;2022-08-20T15:31:09;34.20;53.90
41953;DHT22;47381;28.206;112.926;2022-08-20T15:33:37;34.20;53.20
41953;DHT22;47381;28.206;112.926;2022-08-20T15:36:07;34.20;53.00
41953;DHT22;47381;28.206;112.926;2022-08-20T15:38:35;34.20;52.90
41953;DHT22;47381;28.206;112.926;2022-08-20T15:41:05;34.20;52.80
41953;DHT22;47381;28.206;112.926;2022-08-20T15:43:33;34.20;53.10
41953;DHT22;47381;28.206;112.926;2022-08-20T15:46:03;34.20;52.00
41953;DHT22;47381;28.206;112.926;2022-08-20T15:48:50;34.20;52.40
41953;DHT22;47381;28.206;112.926;2022-08-20T15:54:24;34.20;52.70
41953;DHT22;47381;28.206;112.926;2022-08-20T15:57:18;34.20;52.00